createdAt,value
2019-05-30T00:00:15.991Z,1022.60
2019-05-30T00:01:02.451Z,1022.58
2019-05-30T00:02:02.681Z,1022.58
2019-05-30T00:03:02.508Z,1022.64
2019-05-30T00:04:03.222Z,1022.62
2019-05-30T00:05:02.794Z,1022.63
2019-05-30T00:06:02.590Z,1022.65
2019-05-30T00:07:02.617Z,1022.63
2019-05-30T00:08:02.645Z,1022.63
2019-05-30T00:09:03.224Z,1022.62
2019-05-30T00:10:02.992Z,1022.63
2019-05-30T00:11:02.830Z,1022.61
2019-05-30T00:12:03.074Z,1022.62
2019-05-30T00:13:02.902Z,1022.59
2019-05-30T00:14:02.885Z,1022.54
2019-05-30T00:15:04.944Z,1022.62
2019-05-30T00:16:03.054Z,1022.62
2019-05-30T00:17:03.086Z,1022.62
2019-05-30T00:18:02.987Z,1022.63
2019-05-30T00:19:02.987Z,1022.61
2019-05-30T00:20:03.424Z,1022.63
2019-05-30T00:21:03.015Z,1022.65
2019-05-30T00:22:03.896Z,1022.61
2019-05-30T00:23:03.058Z,1022.64
2019-05-30T00:24:04.205Z,1022.64
2019-05-30T00:25:04.250Z,1022.65
2019-05-30T00:26:03.365Z,1022.66
2019-05-30T00:27:04.509Z,1022.64
2019-05-30T00:28:05.202Z,1022.66
2019-05-30T00:29:04.436Z,1022.64
2019-05-30T00:30:03.601Z,1022.64
2019-05-30T00:31:04.592Z,1022.67
2019-05-30T00:32:04.084Z,1022.65
2019-05-30T00:33:03.860Z,1022.67
2019-05-30T00:34:04.229Z,1022.68
2019-05-30T00:35:03.804Z,1022.67
2019-05-30T00:36:03.912Z,1022.67
2019-05-30T00:37:04.080Z,1022.68
2019-05-30T00:38:03.897Z,1022.68
2019-05-30T00:39:03.908Z,1022.66
2019-05-30T00:40:04.153Z,1022.65
2019-05-30T00:41:04.188Z,1022.69
2019-05-30T00:42:04.256Z,1022.68
2019-05-30T00:43:04.223Z,1022.67
2019-05-30T00:44:04.367Z,1022.68
2019-05-30T00:45:18.629Z,1022.70
2019-05-30T00:46:04.215Z,1022.73
2019-05-30T00:47:04.495Z,1022.72
2019-05-30T00:48:04.381Z,1022.72
2019-05-30T00:49:04.550Z,1022.69
2019-05-30T00:50:04.428Z,1022.70
2019-05-30T00:51:04.647Z,1022.71
2019-05-30T00:52:05.111Z,1022.72
2019-05-30T00:53:05.348Z,1022.71
2019-05-30T00:54:04.731Z,1022.76
2019-05-30T00:55:04.721Z,1022.73
2019-05-30T00:56:04.776Z,1022.76
2019-05-30T00:57:04.918Z,1022.79
2019-05-30T00:58:04.827Z,1022.82
2019-05-30T00:59:04.931Z,1022.82
2019-05-30T01:00:05.008Z,1022.79
2019-05-30T01:01:05.151Z,1022.78
2019-05-30T01:02:04.943Z,1022.85
2019-05-30T01:03:05.299Z,1022.81
2019-05-30T01:04:04.966Z,1022.87
2019-05-30T01:05:05.142Z,1022.86
2019-05-30T01:06:04.996Z,1022.84
2019-05-30T01:07:05.206Z,1022.86
2019-05-30T01:08:05.154Z,1022.85
2019-05-30T01:09:05.121Z,1022.86
2019-05-30T01:10:05.207Z,1022.87
2019-05-30T01:11:05.310Z,1022.89
2019-05-30T01:12:05.277Z,1022.91
2019-05-30T01:13:05.209Z,1022.89
2019-05-30T01:14:05.424Z,1022.89
2019-05-30T01:15:05.174Z,1022.91
2019-05-30T01:16:05.493Z,1022.92
2019-05-30T01:17:05.267Z,1022.94
2019-05-30T01:18:05.311Z,1022.94
2019-05-30T01:19:05.309Z,1022.97
2019-05-30T01:20:05.297Z,1022.98
2019-05-30T01:21:05.378Z,1022.97
2019-05-30T01:22:05.488Z,1022.98
2019-05-30T01:23:05.371Z,1022.97
2019-05-30T01:24:05.668Z,1023.00
2019-05-30T01:25:05.985Z,1022.98
2019-05-30T01:26:05.491Z,1023.00
2019-05-30T01:27:05.578Z,1022.96
2019-05-30T01:28:05.663Z,1022.98
2019-05-30T01:29:05.567Z,1023.02
2019-05-30T01:30:05.734Z,1023.00
2019-05-30T01:31:09.528Z,1023.00
2019-05-30T01:32:05.593Z,1023.02
2019-05-30T01:33:05.873Z,1023.05
2019-05-30T01:34:05.875Z,1023.05
2019-05-30T01:35:05.808Z,1023.04
2019-05-30T01:36:05.843Z,1023.04
2019-05-30T01:37:05.831Z,1023.01
2019-05-30T01:38:06.076Z,1023.05
2019-05-30T01:39:05.903Z,1023.03
2019-05-30T01:40:06.466Z,1023.02
2019-05-30T01:41:05.907Z,1023.02
2019-05-30T01:42:05.933Z,1023.07
2019-05-30T01:43:06.211Z,1023.07
2019-05-30T01:44:06.081Z,1023.09
2019-05-30T01:45:06.213Z,1023.07
2019-05-30T01:46:06.189Z,1023.10
2019-05-30T01:47:06.373Z,1023.09
2019-05-30T01:48:06.417Z,1023.06
2019-05-30T01:49:06.809Z,1023.11
2019-05-30T01:50:06.492Z,1023.13
2019-05-30T01:51:06.540Z,1023.11
2019-05-30T01:52:06.606Z,1023.13
2019-05-30T01:53:06.661Z,1023.09
2019-05-30T01:54:06.586Z,1023.08
2019-05-30T01:55:06.460Z,1023.13
2019-05-30T01:56:06.749Z,1023.11
2019-05-30T01:57:06.721Z,1023.11
2019-05-30T01:58:07.117Z,1023.11
2019-05-30T01:59:06.731Z,1023.14
2019-05-30T02:00:15.369Z,1023.13
2019-05-30T02:01:19.105Z,1023.17
2019-05-30T02:02:07.091Z,1023.14
2019-05-30T02:03:06.950Z,1023.15
2019-05-30T02:04:07.216Z,1023.21
2019-05-30T02:05:07.465Z,1023.19
2019-05-30T02:06:07.213Z,1023.16
2019-05-30T02:07:07.069Z,1023.19
2019-05-30T02:08:05.898Z,1023.19
2019-05-30T02:09:05.928Z,1023.20
2019-05-30T02:10:05.954Z,1023.22
2019-05-30T02:11:05.981Z,1023.23
2019-05-30T02:12:06.005Z,1023.17
2019-05-30T02:13:06.033Z,1023.21
2019-05-30T02:14:06.061Z,1023.25
2019-05-30T02:15:06.087Z,1023.29
2019-05-30T02:16:06.113Z,1023.25
2019-05-30T02:17:06.142Z,1023.28
2019-05-30T02:18:06.170Z,1023.24
2019-05-30T02:19:06.197Z,1023.26
2019-05-30T02:20:06.223Z,1023.26
2019-05-30T02:21:06.251Z,1023.26
2019-05-30T02:22:06.278Z,1023.27
2019-05-30T02:23:08.023Z,1023.29
2019-05-30T02:24:06.329Z,1023.30
2019-05-30T02:25:06.361Z,1023.32
2019-05-30T02:26:06.400Z,1023.33
2019-05-30T02:27:06.426Z,1023.31
2019-05-30T02:28:06.439Z,1023.36
2019-05-30T02:29:06.468Z,1023.36
2019-05-30T02:30:10.782Z,1023.37
2019-05-30T02:31:07.109Z,1023.39
2019-05-30T02:32:07.067Z,1023.42
2019-05-30T02:33:07.461Z,1023.40
2019-05-30T02:34:07.503Z,1023.40
2019-05-30T02:35:07.775Z,1023.43
2019-05-30T02:36:08.489Z,1023.42
2019-05-30T02:37:08.475Z,1023.45
2019-05-30T02:38:07.421Z,1023.44
2019-05-30T02:39:07.411Z,1023.43
2019-05-30T02:40:09.811Z,1023.45
2019-05-30T02:41:08.199Z,1023.46
2019-05-30T02:42:07.360Z,1023.46
2019-05-30T02:43:07.611Z,1023.48
2019-05-30T02:44:07.722Z,1023.46
2019-05-30T02:45:07.842Z,1023.49
2019-05-30T02:46:08.106Z,1023.51
2019-05-30T02:47:07.422Z,1023.52
2019-05-30T02:48:07.361Z,1023.54
2019-05-30T02:49:09.603Z,1023.55
2019-05-30T02:50:09.050Z,1023.55
2019-05-30T02:51:08.022Z,1023.56
2019-05-30T02:52:08.550Z,1023.54
2019-05-30T02:53:08.313Z,1023.58
2019-05-30T02:54:09.317Z,1023.59
2019-05-30T02:55:10.261Z,1023.60
2019-05-30T02:56:07.906Z,1023.59
2019-05-30T02:57:07.905Z,1023.61
2019-05-30T02:58:08.620Z,1023.60
2019-05-30T02:59:09.183Z,1023.64
2019-05-30T03:00:08.360Z,1023.61
2019-05-30T03:01:09.181Z,1023.61
2019-05-30T03:02:13.764Z,1023.58
2019-05-30T03:03:11.120Z,1023.62
2019-05-30T03:04:08.708Z,1023.60
2019-05-30T03:05:10.970Z,1023.62
2019-05-30T03:06:09.246Z,1023.62
2019-05-30T03:07:09.018Z,1023.60
2019-05-30T03:08:10.998Z,1023.60
2019-05-30T03:09:09.109Z,1023.63
2019-05-30T03:10:09.633Z,1023.63
2019-05-30T03:11:10.191Z,1023.66
2019-05-30T03:12:09.142Z,1023.68
2019-05-30T03:13:08.249Z,1023.69
2019-05-30T03:14:12.092Z,1023.68
2019-05-30T03:15:11.655Z,1023.64
2019-05-30T03:16:09.377Z,1023.72
2019-05-30T03:17:10.217Z,1023.69
2019-05-30T03:18:09.956Z,1023.71
2019-05-30T03:19:08.498Z,1023.75
2019-05-30T03:20:14.903Z,1023.76
2019-05-30T03:21:10.248Z,1023.74
2019-05-30T03:22:09.495Z,1023.74
2019-05-30T03:23:09.924Z,1023.78
2019-05-30T03:24:11.220Z,1023.81
2019-05-30T03:25:11.039Z,1023.80
2019-05-30T03:26:10.823Z,1023.79
2019-05-30T03:27:09.918Z,1023.78
2019-05-30T03:28:09.065Z,1023.78
2019-05-30T03:29:10.022Z,1023.78
2019-05-30T03:30:16.413Z,1023.79
2019-05-30T03:31:14.636Z,1023.79
2019-05-30T03:32:49.074Z,1023.83
2019-05-30T03:33:29.023Z,1023.86
2019-05-30T03:34:16.514Z,1023.85
2019-05-30T03:35:17.583Z,1023.83
2019-05-30T03:36:15.503Z,1023.87
2019-05-30T03:37:16.720Z,1023.92
2019-05-30T03:38:10.457Z,1023.89
2019-05-30T03:39:10.823Z,1023.90
2019-05-30T03:40:08.473Z,1023.92
2019-05-30T03:41:09.929Z,1023.92
2019-05-30T03:42:09.495Z,1023.92
2019-05-30T03:43:09.304Z,1023.92
2019-05-30T03:44:10.736Z,1023.91
2019-05-30T03:45:11.320Z,1023.95
2019-05-30T03:46:10.448Z,1023.93
2019-05-30T03:47:11.030Z,1023.95
2019-05-30T03:48:09.884Z,1023.96
2019-05-30T03:49:10.585Z,1023.97
2019-05-30T03:50:09.803Z,1023.94
2019-05-30T03:51:10.799Z,1023.95
2019-05-30T03:52:10.654Z,1023.96
2019-05-30T03:53:09.876Z,1023.99
2019-05-30T03:54:09.823Z,1023.99
2019-05-30T03:55:09.949Z,1024.01
2019-05-30T03:56:09.874Z,1024.03
2019-05-30T03:57:09.648Z,1024.03
2019-05-30T03:58:10.043Z,1024.04
2019-05-30T03:59:10.393Z,1024.04
2019-05-30T04:00:11.113Z,1024.05
2019-05-30T04:01:10.136Z,1024.08
2019-05-30T04:02:11.063Z,1024.07
2019-05-30T04:03:10.970Z,1024.03
2019-05-30T04:04:11.597Z,1024.03
2019-05-30T04:05:11.235Z,1024.08
2019-05-30T04:06:10.187Z,1024.09
2019-05-30T04:07:11.405Z,1024.07
2019-05-30T04:08:10.051Z,1024.10
2019-05-30T04:09:11.334Z,1024.09
2019-05-30T04:10:11.257Z,1024.13
2019-05-30T04:11:10.449Z,1024.14
2019-05-30T04:12:10.674Z,1024.13
2019-05-30T04:13:10.338Z,1024.11
2019-05-30T04:14:11.129Z,1024.18
2019-05-30T04:15:10.196Z,1024.14
2019-05-30T04:16:11.083Z,1024.16
2019-05-30T04:17:11.165Z,1024.15
2019-05-30T04:18:11.889Z,1024.14
2019-05-30T04:19:10.015Z,1024.13
2019-05-30T04:20:11.327Z,1024.18
2019-05-30T04:21:11.466Z,1024.18
2019-05-30T04:22:11.424Z,1024.20
2019-05-30T04:23:10.887Z,1024.24
2019-05-30T04:24:11.888Z,1024.23
2019-05-30T04:25:10.135Z,1024.23
2019-05-30T04:26:11.423Z,1024.24
2019-05-30T04:27:11.921Z,1024.27
2019-05-30T04:28:09.923Z,1024.31
2019-05-30T04:29:09.964Z,1024.24
2019-05-30T04:30:10.137Z,1024.26
2019-05-30T04:31:10.147Z,1024.27
2019-05-30T04:32:10.431Z,1024.26
2019-05-30T04:33:19.431Z,1024.29
2019-05-30T04:34:10.136Z,1024.27
2019-05-30T04:35:10.358Z,1024.25
2019-05-30T04:36:10.500Z,1024.25
2019-05-30T04:37:10.750Z,1024.25
2019-05-30T04:38:10.532Z,1024.28
2019-05-30T04:39:11.226Z,1024.24
2019-05-30T04:40:11.271Z,1024.30
2019-05-30T04:41:11.219Z,1024.28
2019-05-30T04:42:11.330Z,1024.31
2019-05-30T04:43:11.006Z,1024.28
2019-05-30T04:44:12.003Z,1024.29
2019-05-30T04:45:11.823Z,1024.26
2019-05-30T04:46:12.181Z,1024.31
2019-05-30T04:47:12.142Z,1024.34
2019-05-30T04:48:11.704Z,1024.33
2019-05-30T04:49:12.201Z,1024.40
2019-05-30T04:50:12.204Z,1024.34
2019-05-30T04:51:12.438Z,1024.35
2019-05-30T04:52:15.586Z,1024.32
2019-05-30T04:53:12.235Z,1024.35
2019-05-30T04:54:12.577Z,1024.33
2019-05-30T04:55:13.057Z,1024.34
2019-05-30T04:56:12.519Z,1024.37
2019-05-30T04:57:12.605Z,1024.39
2019-05-30T04:58:13.171Z,1024.40
2019-05-30T04:59:11.505Z,1024.43
2019-05-30T05:00:11.077Z,1024.45
2019-05-30T05:01:11.114Z,1024.45
2019-05-30T05:02:11.580Z,1024.45
2019-05-30T05:03:11.397Z,1024.45
2019-05-30T05:04:11.527Z,1024.46
2019-05-30T05:05:11.522Z,1024.47
2019-05-30T05:06:11.679Z,1024.46
2019-05-30T05:07:11.559Z,1024.48
2019-05-30T05:08:11.768Z,1024.45
2019-05-30T05:09:11.991Z,1024.50
2019-05-30T05:10:12.002Z,1024.48
2019-05-30T05:11:14.106Z,1024.43
2019-05-30T05:12:12.014Z,1024.42
2019-05-30T05:13:12.225Z,1024.44
2019-05-30T05:14:12.342Z,1024.46
2019-05-30T05:15:12.392Z,1024.45
2019-05-30T05:16:22.992Z,1024.49
2019-05-30T05:17:12.753Z,1024.51
2019-05-30T05:18:12.958Z,1024.55
2019-05-30T05:19:12.865Z,1024.53
2019-05-30T05:20:13.050Z,1024.53
2019-05-30T05:21:12.829Z,1024.54
2019-05-30T05:22:12.838Z,1024.55
2019-05-30T05:23:13.049Z,1024.50
2019-05-30T05:24:13.298Z,1024.61
2019-05-30T05:25:13.243Z,1024.61
2019-05-30T05:26:13.364Z,1024.58
2019-05-30T05:27:13.528Z,1024.59
2019-05-30T05:28:12.199Z,1024.57
2019-05-30T05:29:12.247Z,1024.59
2019-05-30T05:30:12.290Z,1024.60
2019-05-30T05:31:12.327Z,1024.61
2019-05-30T05:32:12.371Z,1024.65
2019-05-30T05:33:12.413Z,1024.67
2019-05-30T05:34:12.456Z,1024.63
2019-05-30T05:35:12.501Z,1024.62
2019-05-30T05:36:12.542Z,1024.60
2019-05-30T05:37:12.586Z,1024.62
2019-05-30T05:38:12.632Z,1024.65
2019-05-30T05:39:12.673Z,1024.63
2019-05-30T05:40:12.721Z,1024.67
2019-05-30T05:41:12.762Z,1024.64
2019-05-30T05:42:12.806Z,1024.67
2019-05-30T05:43:12.852Z,1024.59
2019-05-30T05:44:12.896Z,1024.61
2019-05-30T05:45:12.943Z,1024.62
2019-05-30T05:46:12.987Z,1024.63
2019-05-30T05:47:13.029Z,1024.63
2019-05-30T05:48:13.071Z,1024.62
2019-05-30T05:49:13.119Z,1024.56
2019-05-30T05:50:13.163Z,1024.62
2019-05-30T05:51:13.205Z,1024.65
2019-05-30T05:52:13.249Z,1024.67
2019-05-30T05:53:13.296Z,1024.60
2019-05-30T05:54:13.344Z,1024.64
2019-05-30T05:55:13.386Z,1024.67
2019-05-30T05:56:13.430Z,1024.73
2019-05-30T05:57:13.476Z,1024.91
2019-05-30T05:58:13.521Z,1025.02
2019-05-30T05:59:13.569Z,1025.06
2019-05-30T06:00:13.612Z,1024.98
2019-05-30T06:01:13.658Z,1024.96
2019-05-30T06:02:13.882Z,1024.97
2019-05-30T06:03:13.751Z,1024.96
2019-05-30T06:04:13.936Z,1024.97
2019-05-30T06:05:13.840Z,1024.92
2019-05-30T06:06:13.888Z,1025.00
2019-05-30T06:07:13.934Z,1024.97
2019-05-30T06:08:13.980Z,1024.98
2019-05-30T06:09:14.026Z,1024.96
2019-05-30T06:10:14.074Z,1024.95
2019-05-30T06:11:14.122Z,1024.93
2019-05-30T06:12:14.164Z,1024.95
2019-05-30T06:13:14.214Z,1024.91
2019-05-30T06:14:14.260Z,1024.91
2019-05-30T06:15:14.304Z,1024.93
2019-05-30T06:16:14.350Z,1024.96
2019-05-30T06:17:14.395Z,1024.92
2019-05-30T06:18:14.445Z,1024.93
2019-05-30T06:19:14.492Z,1024.90
2019-05-30T06:20:14.544Z,1024.91
2019-05-30T06:21:14.584Z,1024.90
2019-05-30T06:22:14.629Z,1024.89
2019-05-30T06:23:14.676Z,1024.89
2019-05-30T06:24:14.723Z,1024.88
2019-05-30T06:25:14.777Z,1024.87
2019-05-30T06:26:14.819Z,1024.85
2019-05-30T06:27:14.870Z,1024.82
2019-05-30T06:28:14.912Z,1024.85
2019-05-30T06:29:14.958Z,1024.80
2019-05-30T06:30:15.006Z,1024.83
2019-05-30T06:31:15.060Z,1024.82
2019-05-30T06:32:15.102Z,1024.88
2019-05-30T06:33:15.152Z,1024.86
2019-05-30T06:34:28.196Z,1024.83
2019-05-30T06:35:15.244Z,1024.92
2019-05-30T06:36:15.292Z,1024.92
2019-05-30T06:37:15.369Z,1024.93
2019-05-30T06:38:15.391Z,1024.89
2019-05-30T06:39:15.435Z,1024.88
2019-05-30T06:40:15.484Z,1024.92
2019-05-30T06:41:15.530Z,1024.92
2019-05-30T06:42:15.577Z,1024.91
2019-05-30T06:43:15.649Z,1024.89
2019-05-30T06:44:15.672Z,1024.87
2019-05-30T06:45:15.719Z,1024.86
2019-05-30T06:46:15.768Z,1024.88
2019-05-30T06:47:15.815Z,1024.88
2019-05-30T06:48:15.863Z,1024.87
2019-05-30T06:49:15.910Z,1024.88
2019-05-30T06:50:15.962Z,1024.87
2019-05-30T06:51:16.009Z,1024.93
2019-05-30T06:52:16.091Z,1024.91
2019-05-30T06:53:16.101Z,1024.93
2019-05-30T06:54:16.151Z,1024.92
2019-05-30T06:55:16.196Z,1024.90
2019-05-30T06:56:16.244Z,1024.96
2019-05-30T06:57:16.294Z,1024.96
2019-05-30T06:58:16.342Z,1024.95
2019-05-30T06:59:16.392Z,1024.93
2019-05-30T07:00:16.440Z,1024.96
2019-05-30T07:01:16.491Z,1024.96
2019-05-30T07:02:16.542Z,1024.94
2019-05-30T07:03:16.666Z,1024.90
2019-05-30T07:04:17.218Z,1024.93
2019-05-30T07:05:17.285Z,1024.93
2019-05-30T07:06:17.129Z,1024.91
2019-05-30T07:07:16.989Z,1024.89
2019-05-30T07:08:16.825Z,1024.93
2019-05-30T07:09:16.873Z,1024.93
2019-05-30T07:10:16.925Z,1024.95
2019-05-30T07:11:16.974Z,1025.02
2019-05-30T07:12:17.020Z,1025.02
2019-05-30T07:13:17.068Z,1025.01
2019-05-30T07:14:17.118Z,1024.98
2019-05-30T07:15:17.169Z,1024.94
2019-05-30T07:16:17.213Z,1024.96
2019-05-30T07:17:17.262Z,1024.87
2019-05-30T07:18:17.311Z,1024.93
2019-05-30T07:19:17.360Z,1024.94
2019-05-30T07:20:17.410Z,1024.96
2019-05-30T07:21:17.454Z,1024.95
2019-05-30T07:22:17.503Z,1024.97
2019-05-30T07:23:17.551Z,1024.96
2019-05-30T07:24:17.598Z,1024.99
2019-05-30T07:25:17.648Z,1024.95
2019-05-30T07:26:17.695Z,1024.94
2019-05-30T07:27:17.749Z,1024.91
2019-05-30T07:28:17.792Z,1024.87
2019-05-30T07:29:17.840Z,1024.93
2019-05-30T07:30:17.884Z,1024.89
2019-05-30T07:31:17.935Z,1024.95
2019-05-30T07:32:17.982Z,1024.94
2019-05-30T07:33:18.130Z,1024.98
2019-05-30T07:34:18.077Z,1025.02
2019-05-30T07:35:18.127Z,1024.97
2019-05-30T07:36:18.168Z,1024.93
2019-05-30T07:37:18.215Z,1024.97
2019-05-30T07:38:18.263Z,1024.96
2019-05-30T07:39:18.309Z,1024.98
2019-05-30T07:40:19.599Z,1024.96
2019-05-30T07:41:18.407Z,1024.98
2019-05-30T07:42:18.459Z,1025.00
2019-05-30T07:43:18.499Z,1025.02
2019-05-30T07:44:18.551Z,1025.00
2019-05-30T07:45:18.595Z,1025.01
2019-05-30T07:46:18.639Z,1025.03
2019-05-30T07:47:18.688Z,1025.04
2019-05-30T07:48:18.734Z,1024.97
2019-05-30T07:49:18.780Z,1025.01
2019-05-30T07:50:18.830Z,1024.97
2019-05-30T07:51:18.876Z,1025.02
2019-05-30T07:52:18.931Z,1025.03
2019-05-30T07:53:18.970Z,1025.02
2019-05-30T07:54:19.019Z,1025.03
2019-05-30T07:55:19.066Z,1024.97
2019-05-30T07:56:19.115Z,1024.97
2019-05-30T07:57:19.160Z,1024.99
2019-05-30T07:58:19.208Z,1025.02
2019-05-30T07:59:19.256Z,1025.02
2019-05-30T08:00:19.302Z,1025.04
2019-05-30T08:01:19.351Z,1024.99
2019-05-30T08:02:19.397Z,1024.96
2019-05-30T08:03:19.446Z,1024.98
2019-05-30T08:04:19.495Z,1024.98
2019-05-30T08:05:24.352Z,1025.02
2019-05-30T08:06:19.589Z,1024.98
2019-05-30T08:07:19.637Z,1024.97
2019-05-30T08:08:19.685Z,1024.96
2019-05-30T08:09:19.732Z,1025.03
2019-05-30T08:10:19.783Z,1025.03
2019-05-30T08:11:19.827Z,1025.01
2019-05-30T08:12:19.879Z,1025.05
2019-05-30T08:13:19.928Z,1025.07
2019-05-30T08:14:19.975Z,1025.03
2019-05-30T08:15:20.019Z,1025.04
2019-05-30T08:16:20.068Z,1025.08
2019-05-30T08:17:20.114Z,1024.99
2019-05-30T08:18:20.163Z,1025.05
2019-05-30T08:19:20.216Z,1025.07
2019-05-30T08:20:20.263Z,1025.00
2019-05-30T08:21:20.307Z,1025.00
2019-05-30T08:22:20.360Z,1025.01
2019-05-30T08:23:20.406Z,1025.02
2019-05-30T08:24:20.449Z,1025.00
2019-05-30T08:25:20.494Z,1025.06
2019-05-30T08:26:20.548Z,1025.04
2019-05-30T08:27:20.589Z,1024.96
2019-05-30T08:28:20.646Z,1025.06
2019-05-30T08:29:20.685Z,1025.00
2019-05-30T08:30:20.741Z,1024.98
2019-05-30T08:31:20.780Z,1025.01
2019-05-30T08:32:20.824Z,1025.00
2019-05-30T08:33:21.807Z,1024.96
2019-05-30T08:34:20.923Z,1025.00
2019-05-30T08:35:20.998Z,1024.92
2019-05-30T08:36:21.015Z,1025.03
2019-05-30T08:37:21.065Z,1024.90
2019-05-30T08:38:21.109Z,1024.90
2019-05-30T08:39:21.158Z,1024.90
2019-05-30T08:40:21.208Z,1024.95
2019-05-30T08:41:21.251Z,1024.94
2019-05-30T08:42:21.301Z,1025.01
2019-05-30T08:43:21.348Z,1025.01
2019-05-30T08:44:21.397Z,1025.05
2019-05-30T08:45:21.440Z,1024.92
2019-05-30T08:46:21.491Z,1024.96
2019-05-30T08:47:21.538Z,1024.89
2019-05-30T08:48:21.586Z,1024.95
2019-05-30T08:49:21.629Z,1024.96
2019-05-30T08:50:21.677Z,1024.98
2019-05-30T08:51:21.725Z,1024.97
2019-05-30T08:52:21.784Z,1024.94
2019-05-30T08:53:21.823Z,1024.93
2019-05-30T08:54:21.867Z,1024.97
2019-05-30T08:55:21.918Z,1024.95
2019-05-30T08:56:21.966Z,1024.90
2019-05-30T08:57:22.012Z,1024.96
2019-05-30T08:58:22.061Z,1024.88
2019-05-30T08:59:22.108Z,1024.88
2019-05-30T09:00:22.153Z,1024.89
2019-05-30T09:01:22.205Z,1024.92
2019-05-30T09:02:22.292Z,1024.93
2019-05-30T09:03:22.336Z,1024.87
2019-05-30T09:04:22.351Z,1024.91
2019-05-30T09:05:22.394Z,1024.83
2019-05-30T09:06:22.447Z,1024.91
2019-05-30T09:07:22.494Z,1024.92
2019-05-30T09:08:22.539Z,1024.90
2019-05-30T09:09:22.588Z,1024.84
2019-05-30T09:10:22.638Z,1024.85
2019-05-30T09:11:22.684Z,1024.91
2019-05-30T09:12:22.730Z,1024.97
2019-05-30T09:13:22.780Z,1024.88
2019-05-30T09:14:22.827Z,1024.85
2019-05-30T09:15:22.875Z,1024.91
2019-05-30T09:16:22.922Z,1024.93
2019-05-30T09:17:22.973Z,1024.92
2019-05-30T09:18:23.020Z,1025.01
2019-05-30T09:19:23.065Z,1024.98
2019-05-30T09:20:23.116Z,1025.00
2019-05-30T09:21:23.161Z,1025.00
2019-05-30T09:22:23.211Z,1024.98
2019-05-30T09:23:23.256Z,1025.00
2019-05-30T09:24:23.306Z,1025.07
2019-05-30T09:25:23.354Z,1025.00
2019-05-30T09:26:23.404Z,1024.98
2019-05-30T09:27:23.445Z,1024.93
2019-05-30T09:28:23.494Z,1025.04
2019-05-30T09:29:23.542Z,1025.00
2019-05-30T09:30:23.600Z,1025.04
2019-05-30T09:31:23.635Z,1024.99
2019-05-30T09:32:23.680Z,1025.01
2019-05-30T09:33:23.727Z,1025.04
2019-05-30T09:34:23.775Z,1025.03
2019-05-30T09:35:23.823Z,1025.10
2019-05-30T09:36:23.870Z,1025.16
2019-05-30T09:37:23.921Z,1025.14
2019-05-30T09:38:23.964Z,1025.15
2019-05-30T09:39:24.010Z,1025.08
2019-05-30T09:40:24.061Z,1025.07
2019-05-30T09:41:24.107Z,1025.08
2019-05-30T09:42:24.152Z,1025.06
2019-05-30T09:43:24.199Z,1025.03
2019-05-30T09:44:24.247Z,1025.07
2019-05-30T09:45:24.303Z,1025.10
2019-05-30T09:46:24.339Z,1024.98
2019-05-30T09:47:24.392Z,1025.13
2019-05-30T09:48:24.435Z,1025.10
2019-05-30T09:49:24.480Z,1025.01
2019-05-30T09:50:24.526Z,1025.07
2019-05-30T09:51:24.581Z,1025.05
2019-05-30T09:52:24.619Z,1025.10
2019-05-30T09:53:24.669Z,1025.07
2019-05-30T09:54:24.712Z,1025.08
2019-05-30T09:55:24.763Z,1025.04
2019-05-30T09:56:24.808Z,1025.05
2019-05-30T09:57:24.855Z,1025.03
2019-05-30T09:58:24.900Z,1024.98
2019-05-30T09:59:24.948Z,1024.95
2019-05-30T10:00:24.994Z,1024.95
2019-05-30T10:01:25.043Z,1025.03
2019-05-30T10:02:25.087Z,1025.01
2019-05-30T10:03:25.136Z,1024.94
2019-05-30T10:04:25.240Z,1025.05
2019-05-30T10:05:25.240Z,1024.96
2019-05-30T10:06:29.549Z,1025.00
2019-05-30T10:07:25.325Z,1025.01
2019-05-30T10:08:25.370Z,1024.96
2019-05-30T10:09:25.417Z,1024.92
2019-05-30T10:10:25.462Z,1024.94
2019-05-30T10:11:25.593Z,1025.00
2019-05-30T10:12:25.555Z,1024.96
2019-05-30T10:13:25.610Z,1024.96
2019-05-30T10:14:25.653Z,1025.00
2019-05-30T10:15:25.703Z,1024.98
2019-05-30T10:16:25.744Z,1024.95
2019-05-30T10:17:25.793Z,1024.96
2019-05-30T10:18:25.840Z,1024.92
2019-05-30T10:19:25.888Z,1024.98
2019-05-30T10:20:25.930Z,1024.91
2019-05-30T10:21:25.984Z,1024.93
2019-05-30T10:22:26.024Z,1024.86
2019-05-30T10:23:26.094Z,1024.90
2019-05-30T10:24:26.121Z,1024.89
2019-05-30T10:25:26.188Z,1024.88
2019-05-30T10:26:26.215Z,1024.89
2019-05-30T10:27:26.259Z,1024.91
2019-05-30T10:28:26.307Z,1024.96
2019-05-30T10:29:26.351Z,1024.95
2019-05-30T10:30:26.400Z,1024.85
2019-05-30T10:31:26.450Z,1024.81
2019-05-30T10:32:26.494Z,1024.83
2019-05-30T10:33:26.541Z,1024.75
2019-05-30T10:34:26.586Z,1024.84
2019-05-30T10:35:29.687Z,1024.79
2019-05-30T10:36:26.681Z,1024.86
2019-05-30T10:37:26.725Z,1024.86
2019-05-30T10:38:26.773Z,1024.73
2019-05-30T10:39:26.824Z,1024.83
2019-05-30T10:40:26.865Z,1024.80
2019-05-30T10:41:26.913Z,1024.82
2019-05-30T10:42:26.958Z,1024.77
2019-05-30T10:43:27.004Z,1024.82
2019-05-30T10:44:27.049Z,1024.84
2019-05-30T10:45:27.095Z,1024.84
2019-05-30T10:46:27.146Z,1024.80
2019-05-30T10:47:27.191Z,1024.81
2019-05-30T10:48:27.235Z,1024.79
2019-05-30T10:49:34.762Z,1024.79
2019-05-30T10:50:27.327Z,1024.76
2019-05-30T10:51:27.371Z,1024.77
2019-05-30T10:52:27.419Z,1024.78
2019-05-30T10:53:27.468Z,1024.74
2019-05-30T10:54:27.510Z,1024.74
2019-05-30T10:55:27.559Z,1024.71
2019-05-30T10:56:27.604Z,1024.72
2019-05-30T10:57:27.670Z,1024.74
2019-05-30T10:58:27.699Z,1024.74
2019-05-30T10:59:27.742Z,1024.77
2019-05-30T11:00:27.789Z,1024.68
2019-05-30T11:01:27.833Z,1024.77
2019-05-30T11:02:27.882Z,1024.73
2019-05-30T11:03:27.929Z,1024.77
2019-05-30T11:04:27.973Z,1024.76
2019-05-30T11:05:28.018Z,1024.77
2019-05-30T11:06:28.069Z,1024.75
2019-05-30T11:07:28.113Z,1024.84
2019-05-30T11:08:28.159Z,1024.76
2019-05-30T11:09:28.202Z,1024.72
2019-05-30T11:10:28.250Z,1024.74
2019-05-30T11:11:28.293Z,1024.74
2019-05-30T11:12:28.338Z,1024.76
2019-05-30T11:13:28.387Z,1024.72
2019-05-30T11:14:28.436Z,1024.75
2019-05-30T11:15:28.479Z,1024.78
2019-05-30T11:16:28.528Z,1024.75
2019-05-30T11:17:28.570Z,1024.78
2019-05-30T11:18:28.618Z,1024.70
2019-05-30T11:19:28.662Z,1024.62
2019-05-30T11:20:28.710Z,1024.50
2019-05-30T11:21:28.753Z,1024.57
2019-05-30T11:22:28.813Z,1024.57
2019-05-30T11:23:28.849Z,1024.58
2019-05-30T11:24:28.891Z,1024.63
2019-05-30T11:25:28.937Z,1024.69
2019-05-30T11:26:28.983Z,1024.66
2019-05-30T11:27:29.030Z,1024.67
2019-05-30T11:28:29.074Z,1024.67
2019-05-30T11:29:29.121Z,1024.66
2019-05-30T11:30:29.168Z,1024.63
2019-05-30T11:31:29.212Z,1024.59
2019-05-30T11:32:29.259Z,1024.55
2019-05-30T11:33:29.305Z,1024.55
2019-05-30T11:34:29.351Z,1024.60
2019-05-30T11:35:29.396Z,1024.46
2019-05-30T11:36:29.446Z,1024.46
2019-05-30T11:37:29.485Z,1024.51
2019-05-30T11:38:29.533Z,1024.47
2019-05-30T11:39:29.583Z,1024.46
2019-05-30T11:40:29.624Z,1024.44
2019-05-30T11:41:29.677Z,1024.42
2019-05-30T11:42:29.714Z,1024.44
2019-05-30T11:43:29.762Z,1024.45
2019-05-30T11:44:29.806Z,1024.47
2019-05-30T11:45:29.907Z,1024.47
2019-05-30T11:46:29.906Z,1024.41
2019-05-30T11:47:29.946Z,1024.47
2019-05-30T11:48:29.992Z,1024.46
2019-05-30T11:49:30.041Z,1024.46
2019-05-30T11:50:30.086Z,1024.44
2019-05-30T11:51:30.132Z,1024.40
2019-05-30T11:52:30.181Z,1024.39
2019-05-30T11:53:30.225Z,1024.36
2019-05-30T11:54:30.275Z,1024.42
2019-05-30T11:55:30.322Z,1024.43
2019-05-30T11:56:30.371Z,1024.48
2019-05-30T11:57:30.410Z,1024.49
2019-05-30T11:58:30.462Z,1024.50
2019-05-30T11:59:30.505Z,1024.55
2019-05-30T12:00:30.581Z,1024.59
2019-05-30T12:01:30.722Z,1024.67
2019-05-30T12:02:30.644Z,1024.74
2019-05-30T12:03:30.695Z,1024.66
2019-05-30T12:04:30.740Z,1024.74
2019-05-30T12:05:30.788Z,1024.77